Portada
METAR-TAF:

METAR-TAF

Aeroports :

Aeroport de Rabat

Rabat, Marroc

latitud: 34-03N, longitud: 006-46W, altitud: 84 m

Observació

L'informe es va fer fa 1 hora i 9 minuts, a les 15:00 UTC
Vent 16 kt del Nord
Temperatura 21°C
Humitat 56%
Pressió 1006 hPa
Visibilitat: 6000 m
Escasses núvols a una alçada de 2600 ft
Núvols disperses a una alçada de 10000 ft

METAR: GMME 261500Z 01016KT 6000 FEW026 SCT100 21/12 Q1006 NOSIG

Hora: 16:09 (16:09 UTC)

Pronòstic

L'informe es va fer fa 5 hores i 9 minuts, a les 11:00 UTC
Pronòstic vàlid del 26 a les 12 UTC al 27 a les 18 UTC
Vent 10 kt del Sud-Oest
Visibilitat: 6000 m
Núvols disperses a una alçada de 2000 ft
Cel ennuvolat a una alçada de 8000 ft
Temporalment
l' 26 a les 18 UTC al 27 a les 12 UTC
Vent 15 kt del Sud-Oest
Visibilitat: 3000 m
Escasses núvols a una alçada de 2000 ft, Cumulonimbus.
Cel ennuvolat a una alçada de 1600 ft
tempesta, pluja

TAF: GMME 261100Z 2612/2718 22010KT 6000 SCT020 BKN080 TEMPO 2618/2712 22015KT 3000 TSRA FEW020CB BKN016

Observacions i pronòstics meteorològics de més de 4000 aeroports (METAR i TAF).

Les estacions disponibles són els punts grocs i vermells al mapa.

Posi el ratolí al punt desitjat per veure el nom de l'estació.

Feu clic per veure les observacions i els pronòstics meteorològics.

Per canviar el mapa: feu clic els botons verds amb una creu de color negre per apropar; al botó verd amb un guió per allunyar la imatge; o en les fletxes verdes per a mapes adjacents.


METAR-TAF: